Time;durP1;ratioP1;P1;durP2;ratioP2;P2;SDS_P1;SDS_P2;PMS_P1;PMS_P2;Temp;Humidity;BMP_temperature;BMP_pressure;BME280_temperature;BME280_humidity;BME280_pressure;Samples;Min_cycle;Max_cycle;Signal;HPM_P1;HPM_P2
2023/03/20 00:03:39;;;;;;;9.13;5.53;;;;;;;7.25;100.00;101737.63;10386607;28;20053;-82
2023/03/20 00:08:40;;;;;;;9.10;6.00;;;;;;;7.20;100.00;101729.22;10412970;28;20041;-83
2023/03/20 00:13:41;;;;;;;14.35;8.02;;;;;;;7.20;100.00;101740.16;10378924;28;20056;-83
2023/03/20 00:18:41;;;;;;;12.18;7.65;;;;;;;6.92;100.00;101735.72;10378932;28;20037;-83
2023/03/20 00:23:42;;;;;;;16.58;7.25;;;;;;;7.02;100.00;101765.44;10406216;28;20853;-81
2023/03/20 00:28:43;;;;;;;13.90;7.78;;;;;;;6.95;100.00;101770.06;10401932;28;20025;-82
2023/03/20 00:33:44;;;;;;;12.25;7.05;;;;;;;7.13;100.00;101783.13;10449047;28;20063;-82
2023/03/20 00:38:45;;;;;;;12.10;7.25;;;;;;;7.12;100.00;101784.19;10434500;28;20040;-83
2023/03/20 00:43:47;;;;;;;12.43;7.50;;;;;;;7.12;100.00;101768.59;10418833;28;20040;-82
2023/03/20 00:48:47;;;;;;;12.10;6.15;;;;;;;7.03;100.00;101769.88;10419772;28;20064;-83
2023/03/20 00:53:48;;;;;;;8.80;5.45;;;;;;;7.00;100.00;101790.25;10409341;28;20041;-84
2023/03/20 00:58:49;;;;;;;8.80;4.82;;;;;;;6.98;100.00;101786.88;10375838;28;20065;-82
2023/03/20 01:03:49;;;;;;;9.75;5.70;;;;;;;6.90;100.00;101789.81;10393016;28;20077;-82
2023/03/20 01:08:50;;;;;;;7.97;5.20;;;;;;;6.83;100.00;101781.59;10392597;28;20468;-82
2023/03/20 01:13:51;;;;;;;14.35;5.63;;;;;;;6.81;100.00;101796.56;10409498;28;20064;-83
2023/03/20 01:18:52;;;;;;;12.02;5.88;;;;;;;6.90;100.00;101805.41;10409531;28;20037;-83
2023/03/20 01:23:52;;;;;;;12.35;5.97;;;;;;;6.91;100.00;101812.59;10392469;28;20097;-83
2023/03/20 01:28:53;;;;;;;14.60;5.85;;;;;;;6.80;100.00;101816.75;10374964;28;20045;-83
2023/03/20 01:33:53;;;;;;;8.20;5.30;;;;;;;6.86;100.00;101813.19;10375953;28;20048;-82
2023/03/20 01:38:55;;;;;;;11.77;5.50;;;;;;;6.86;100.00;101810.44;10415313;28;20029;-83
2023/03/20 01:43:55;;;;;;;11.13;5.65;;;;;;;6.81;100.00;101799.28;10415733;28;20041;-82
2023/03/20 01:49:28;;;;;;;8.77;5.15;;;;;;;6.91;100.00;101802.47;10341239;28;20048;-83
2023/03/20 01:54:30;;;;;;;9.93;4.93;;;;;;;6.79;100.00;101779.50;10428167;28;20049;-83
2023/03/20 01:59:42;;;;;;;9.77;4.70;;;;;;;6.89;100.00;101782.69;10423066;28;20037;-82
2023/03/20 02:04:44;;;;;;;8.70;5.22;;;;;;;6.70;100.00;101754.22;10442043;28;20044;-83
2023/03/20 02:09:46;;;;;;;15.00;5.90;;;;;;;6.82;100.00;101771.72;10343898;28;20042;-82
2023/03/20 02:14:47;;;;;;;15.27;6.30;;;;;;;6.70;100.00;101732.31;10359143;28;20042;-82
2023/03/20 02:20:00;;;;;;;12.43;5.78;;;;;;;6.87;100.00;101746.47;10342107;28;20461;-84
2023/03/20 02:25:14;;;;;;;18.67;7.07;;;;;;;6.91;100.00;101747.72;10406500;28;20042;-83
2023/03/20 02:30:33;;;;;;;12.25;6.53;;;;;;;6.92;100.00;101738.44;10373179;28;20050;-83
2023/03/20 02:36:07;;;;;;;17.38;8.43;;;;;;;6.90;100.00;101746.03;10415133;28;20037;-83
2023/03/20 02:41:26;;;;;;;23.00;8.32;;;;;;;6.93;100.00;101729.19;10414512;28;20037;-82
2023/03/20 02:47:00;;;;;;;17.60;8.23;;;;;;;6.92;100.00;101732.97;10341094;28;20046;-83
2023/03/20 02:52:14;;;;;;;18.35;8.07;;;;;;;6.97;100.00;101727.72;10373204;28;20059;-83
2023/03/20 02:57:29;;;;;;;17.55;8.23;;;;;;;6.95;100.00;101713.41;10390660;28;20042;-84
2023/03/20 03:02:57;;;;;;;17.52;8.43;;;;;;;6.90;100.00;101702.22;10343025;28;20045;-83
2023/03/20 03:07:58;;;;;;;17.58;8.77;;;;;;;6.97;100.00;101714.03;10372668;28;20029;-83
2023/03/20 03:12:59;;;;;;;18.05;9.10;;;;;;;6.84;100.00;101678.44;10373543;28;20048;-83
2023/03/20 03:17:59;;;;;;;23.05;10.82;;;;;;;6.96;100.00;101695.91;10356063;28;20093;-83
2023/03/20 03:23:00;;;;;;;19.55;9.05;;;;;;;6.86;100.00;101666.25;10355332;28;20402;-82
2023/03/20 03:28:21;;;;;;;17.05;7.78;;;;;;;7.03;100.00;101687.72;10368304;28;20597;-82
2023/03/20 03:33:27;;;;;;;22.08;9.13;;;;;;;7.01;100.00;101676.97;10380674;28;20433;-84
2023/03/20 03:38:37;;;;;;;26.33;11.43;;;;;;;7.02;100.00;101677.81;10413138;28;20044;-83
2023/03/20 03:43:59;;;;;;;23.13;10.85;;;;;;;6.92;100.00;101659.06;10355965;28;20068;-83
2023/03/20 03:48:59;;;;;;;20.85;10.27;;;;;;;6.96;100.00;101673.19;10410527;28;20480;-84
2023/03/20 03:54:08;;;;;;;25.35;11.40;;;;;;;6.91;100.00;101643.72;10395262;28;20076;-83
2023/03/20 03:59:12;;;;;;;22.13;12.07;;;;;;;7.04;100.00;101665.59;10394862;28;20034;-83
2023/03/20 04:04:13;;;;;;;26.02;13.07;;;;;;;7.04;100.00;101668.31;10395397;28;20110;-82
2023/03/20 04:09:14;;;;;;;24.05;11.68;;;;;;;6.89;100.00;101623.91;10410717;28;20525;-83
2023/03/20 04:14:14;;;;;;;26.40;11.98;;;;;;;7.02;100.00;101640.31;10395391;28;20038;-82
2023/03/20 04:19:15;;;;;;;27.17;11.70;;;;;;;6.64;100.00;101588.97;10410108;28;20034;-82
2023/03/20 04:24:16;;;;;;;27.88;11.43;;;;;;;7.07;100.00;101658.88;10392781;28;20037;-82
2023/03/20 04:29:16;;;;;;;22.27;10.82;;;;;;;6.99;100.00;101639.91;10376761;28;20029;-82
2023/03/20 04:34:17;;;;;;;21.65;10.63;;;;;;;7.05;100.00;101634.44;10393602;28;20037;-82
2023/03/20 04:39:17;;;;;;;30.80;11.23;;;;;;;6.73;100.00;101581.38;10393773;28;20033;-82
2023/03/20 04:44:18;;;;;;;19.88;9.20;;;;;;;7.06;100.00;101625.16;10394132;28;20077;-81
2023/03/20 04:49:18;;;;;;;17.05;9.15;;;;;;;7.10;100.00;101636.53;10410610;28;20045;-84
2023/03/20 04:54:19;;;;;;;18.58;9.38;;;;;;;7.07;100.00;101626.00;10391945;28;20037;-84
2023/03/20 04:59:19;;;;;;;22.15;9.40;;;;;;;7.04;100.00;101632.72;10409009;28;20117;-83
2023/03/20 05:04:20;;;;;;;15.43;8.77;;;;;;;7.03;100.00;101624.75;10390942;28;20035;-82
2023/03/20 05:09:21;;;;;;;19.73;9.63;;;;;;;6.97;100.00;101615.47;10392500;28;20044;-82
2023/03/20 05:14:21;;;;;;;16.42;9.43;;;;;;;7.05;100.00;101618.00;10391629;28;20102;-82
2023/03/20 05:19:22;;;;;;;15.93;9.35;;;;;;;7.16;100.00;101627.47;10408390;28;20061;-83
2023/03/20 05:24:22;;;;;;;13.85;8.55;;;;;;;7.15;100.00;101638.63;10374355;28;20057;-83
2023/03/20 05:29:22;;;;;;;18.33;9.32;;;;;;;7.13;100.00;101632.50;10408919;28;20034;-72
2023/03/20 05:34:23;;;;;;;17.50;8.63;;;;;;;7.14;100.00;101637.78;10388004;28;20132;-82
2023/03/20 05:39:23;;;;;;;19.23;8.00;;;;;;;7.06;100.00;101627.88;10408083;28;20041;-82
2023/03/20 05:44:24;;;;;;;20.17;8.07;;;;;;;7.12;100.00;101655.50;10365275;28;20030;-81
2023/03/20 05:49:25;;;;;;;14.38;7.90;;;;;;;7.10;100.00;101647.47;10407268;28;20084;-84
2023/03/20 05:54:25;;;;;;;16.48;8.02;;;;;;;6.97;100.00;101637.38;10407442;28;20075;-84
2023/03/20 05:59:25;;;;;;;12.15;6.65;;;;;;;7.14;100.00;101670.66;10391473;28;20037;-83
2023/03/20 06:04:26;;;;;;;11.27;6.78;;;;;;;7.08;100.00;101649.59;10402313;28;20045;-76
2023/03/20 06:09:27;;;;;;;19.13;8.05;;;;;;;7.17;100.00;101656.53;10416760;28;20040;-81
2023/03/20 06:14:27;;;;;;;14.07;6.95;;;;;;;7.15;100.00;101663.25;10447237;28;20049;-83
2023/03/20 06:19:28;;;;;;;17.48;7.15;;;;;;;7.19;100.00;101662.66;10375671;28;20034;-83
2023/03/20 06:24:30;;;;;;;17.33;7.63;;;;;;;7.14;100.00;101643.25;10395163;28;20064;-85
2023/03/20 06:29:30;;;;;;;17.20;7.10;;;;;;;7.22;100.00;101672.31;10366584;28;20064;-83
2023/03/20 06:34:31;;;;;;;11.43;6.53;;;;;;;7.23;100.00;101663.03;10367676;28;20095;-84
2023/03/20 06:39:31;;;;;;;21.98;8.75;;;;;;;7.25;100.00;101650.81;10406906;28;20037;-83
2023/03/20 06:44:32;;;;;;;13.98;6.93;;;;;;;7.35;100.00;101661.34;10342682;28;20040;-83
2023/03/20 06:49:32;;;;;;;16.45;6.63;;;;;;;7.39;100.00;101657.13;10377990;28;20042;-83
2023/03/20 06:54:33;;;;;;;14.32;8.00;;;;;;;7.40;100.00;101664.28;10397029;28;20049;-86
2023/03/20 06:59:33;;;;;;;15.45;7.30;;;;;;;7.42;100.00;101664.91;10397137;28;20057;-73
2023/03/20 07:04:34;;;;;;;12.10;6.80;;;;;;;7.52;100.00;101661.72;10364420;28;20064;-84
2023/03/20 07:09:35;;;;;;;12.95;6.80;;;;;;;7.56;100.00;101673.09;10414699;28;20041;-84
2023/03/20 07:14:35;;;;;;;14.75;7.72;;;;;;;7.53;100.00;101662.59;10382738;28;20042;-82
2023/03/20 07:19:36;;;;;;;15.10;7.68;;;;;;;7.51;100.00;101681.13;10410364;28;20053;-84
2023/03/20 07:24:36;;;;;;;17.60;8.68;;;;;;;7.56;100.00;101679.41;10409562;28;20156;-83
2023/03/20 07:29:37;;;;;;;17.65;8.15;;;;;;;7.59;100.00;101691.88;10410334;28;20125;-83
2023/03/20 07:34:37;;;;;;;14.85;7.88;;;;;;;7.59;100.00;101683.66;10409624;28;20045;-84
2023/03/20 07:39:38;;;;;;;16.92;8.18;;;;;;;7.65;100.00;101671.81;10393753;28;20075;-83
2023/03/20 07:44:39;;;;;;;17.98;9.43;;;;;;;7.77;100.00;101686.53;10378569;28;20037;-83
2023/03/20 07:49:40;;;;;;;19.17;8.07;;;;;;;7.84;100.00;101676.38;10375863;28;20049;-74
2023/03/20 07:54:40;;;;;;;19.17;8.20;;;;;;;8.00;100.00;101685.16;10393512;28;20437;-83
2023/03/20 07:59:41;;;;;;;14.35;6.93;;;;;;;8.22;100.00;101700.25;10359393;28;20042;-83
2023/03/20 08:04:42;;;;;;;13.45;7.78;;;;;;;8.39;100.00;101710.72;10366631;28;20046;-84
2023/03/20 08:09:42;;;;;;;15.05;7.65;;;;;;;8.46;100.00;101695.13;10352046;28;20038;-82
2023/03/20 08:14:43;;;;;;;14.82;6.90;;;;;;;8.59;100.00;101694.19;10369681;28;20042;-82
2023/03/20 08:19:44;;;;;;;17.73;7.82;;;;;;;8.66;100.00;101693.09;10351041;28;20128;-83
2023/03/20 08:24:45;;;;;;;18.23;7.57;;;;;;;8.94;100.00;101691.81;10350766;28;20046;-83
2023/03/20 08:29:45;;;;;;;14.02;7.53;;;;;;;8.85;100.00;101671.22;10351026;28;20042;-83
2023/03/20 08:34:46;;;;;;;15.50;6.45;;;;;;;8.90;100.00;101696.06;10351348;28;20079;-82
2023/03/20 08:39:46;;;;;;;10.75;6.40;;;;;;;8.59;100.00;101629.16;10366818;28;20037;-82
2023/03/20 08:44:47;;;;;;;17.10;7.32;;;;;;;8.96;100.00;101677.88;10369139;28;20038;-81
2023/03/20 08:49:47;;;;;;;14.52;7.78;;;;;;;8.87;100.00;101674.56;10366907;28;20064;-82
2023/03/20 08:54:48;;;;;;;15.88;7.75;;;;;;;8.93;100.00;101679.16;10327630;28;20038;-83
2023/03/20 08:59:48;;;;;;;16.63;6.80;;;;;;;9.09;100.00;101675.88;10338979;28;20096;-83
2023/03/20 09:04:49;;;;;;;12.68;7.03;;;;;;;9.26;100.00;101680.75;10358857;28;20053;-81
2023/03/20 09:09:49;;;;;;;14.50;6.93;;;;;;;9.27;100.00;101674.22;10374203;28;20041;-81
2023/03/20 09:14:50;;;;;;;21.13;6.75;;;;;;;9.44;100.00;101657.97;10386033;28;20081;-84
2023/03/20 09:19:51;;;;;;;14.55;6.85;;;;;;;9.57;100.00;101673.47;10356269;28;20038;-83
2023/03/20 09:24:51;;;;;;;15.75;7.50;;;;;;;9.59;100.00;101668.59;10352603;28;20577;-83
2023/03/20 09:29:52;;;;;;;14.68;8.27;;;;;;;9.72;100.00;101651.97;10387696;28;20042;-82
2023/03/20 09:34:52;;;;;;;13.85;6.80;;;;;;;10.21;100.00;101652.81;10390585;28;20040;-71
2023/03/20 09:39:53;;;;;;;12.90;6.70;;;;;;;10.71;100.00;101635.16;10408688;28;21148;-82
2023/03/20 09:45:00;;;;;;;11.95;6.38;;;;;;;11.07;100.00;101619.50;10411972;28;20172;-83
2023/03/20 09:50:22;;;;;;;12.15;6.07;;;;;;;10.90;100.00;101638.66;10401989;28;20046;-85
2023/03/20 09:55:28;;;;;;;12.75;5.88;;;;;;;10.66;100.00;101644.13;10408694;28;20084;-84
2023/03/20 10:00:30;;;;;;;8.73;5.75;;;;;;;10.54;100.00;101634.97;10359400;28;20038;-83
2023/03/20 10:05:55;;;;;;;12.80;6.22;;;;;;;10.48;100.00;101630.44;10365375;28;20104;-83
2023/03/20 10:11:15;;;;;;;10.63;6.10;;;;;;;10.69;100.00;101637.31;10366589;28;20049;-83
2023/03/20 10:16:21;;;;;;;11.65;6.50;;;;;;;10.77;100.00;101634.22;10396983;28;20126;-81
2023/03/20 10:21:26;;;;;;;10.65;6.78;;;;;;;10.95;100.00;101619.47;10385462;28;20060;-83
2023/03/20 10:26:26;;;;;;;17.75;6.28;;;;;;;11.18;100.00;101610.38;10367868;28;20093;-85
2023/03/20 10:31:42;;;;;;;14.10;5.90;;;;;;;11.28;100.00;101618.06;10373214;28;20033;-83
2023/03/20 10:36:54;;;;;;;10.80;5.50;;;;;;;10.97;100.00;101617.34;10394112;28;20045;-82
2023/03/20 10:41:57;;;;;;;11.68;5.20;;;;;;;10.96;100.00;101618.41;10373537;28;20050;-83
2023/03/20 10:46:58;;;;;;;11.75;5.45;;;;;;;10.90;100.00;101616.63;10388986;28;20069;-81
2023/03/20 10:52:01;;;;;;;10.75;5.22;;;;;;;10.60;100.00;101633.22;10417850;28;20041;-82
2023/03/20 10:57:03;;;;;;;12.85;6.25;;;;;;;10.52;100.00;101622.53;10398676;28;20563;-83
2023/03/20 11:02:10;;;;;;;14.25;7.40;;;;;;;10.49;100.00;101632.09;10355964;28;20112;-83
2023/03/20 11:07:14;;;;;;;14.20;7.18;;;;;;;10.56;100.00;101638.34;10358497;28;20519;-84
2023/03/20 11:12:19;;;;;;;13.32;6.88;;;;;;;10.49;100.00;101632.09;10395377;28;20037;-85
2023/03/20 11:17:21;;;;;;;14.40;7.28;;;;;;;10.34;100.00;101650.97;10382691;28;20037;-85
2023/03/20 11:22:25;;;;;;;19.65;8.70;;;;;;;10.13;100.00;101617.38;10397565;28;20113;-84
2023/03/20 11:27:27;;;;;;;11.38;7.40;;;;;;;10.17;100.00;101635.09;10341518;28;20591;-83
2023/03/20 11:32:47;;;;;;;17.23;7.47;;;;;;;10.29;100.00;101647.03;10342808;28;20057;-88
2023/03/20 11:37:49;;;;;;;14.88;8.70;;;;;;;10.20;100.00;101640.13;10355749;28;20038;-88
2023/03/20 11:42:53;;;;;;;15.52;8.18;;;;;;;10.05;100.00;101636.94;10354124;28;20068;-85
2023/03/20 11:47:55;;;;;;;12.57;7.45;;;;;;;10.29;100.00;101626.88;10329493;28;20174;-87
2023/03/20 11:52:55;;;;;;;14.30;7.55;;;;;;;10.13;100.00;101638.53;10330727;28;20168;-89
2023/03/20 11:58:00;;;;;;;12.98;7.63;;;;;;;10.11;100.00;101633.28;10350503;28;20045;-90
2023/03/20 12:03:00;;;;;;;14.93;7.30;;;;;;;10.01;100.00;101619.22;10391655;28;20104;-89
2023/03/20 12:08:07;;;;;;;12.50;7.03;;;;;;;10.27;100.00;101640.00;10344626;28;20048;-87
2023/03/20 12:13:15;;;;;;;9.25;5.30;;;;;;;10.15;100.00;101636.38;10409749;28;20309;-88
2023/03/20 12:18:35;;;;;;;18.95;6.20;;;;;;;10.45;100.00;101631.72;10391215;28;20030;-88
2023/03/20 12:23:39;;;;;;;8.35;4.90;;;;;;;10.04;100.00;101632.50;10374135;28;20145;-89
2023/03/20 12:28:46;;;;;;;13.10;4.95;;;;;;;9.88;100.00;101631.22;10375824;28;20129;-88
2023/03/20 12:34:05;;;;;;;17.08;6.95;;;;;;;9.77;100.00;101618.25;10390476;28;20041;-89
2023/03/20 12:39:10;;;;;;;11.40;5.57;;;;;;;9.87;100.00;101627.63;10374644;28;20486;-88
2023/03/20 12:44:16;;;;;;;16.58;5.13;;;;;;;9.35;100.00;101629.94;10373471;28;20037;-90
2023/03/20 12:49:34;;;;;;;11.30;4.78;;;;;;;9.14;100.00;101578.19;10390434;28;20045;-86
2023/03/20 12:54:56;;;;;;;13.52;5.03;;;;;;;9.61;100.00;101619.72;10375360;28;20041;-88
2023/03/20 13:00:12;;;;;;;7.68;4.85;;;;;;;9.69;100.00;101622.16;10408152;28;20481;-89
2023/03/20 13:05:18;;;;;;;10.30;4.35;;;;;;;9.30;100.00;101585.81;10409131;28;20048;-91
2023/03/20 13:10:20;;;;;;;9.30;4.88;;;;;;;9.46;100.00;101617.34;10406497;28;20041;-89
2023/03/20 13:15:45;;;;;;;7.90;4.93;;;;;;;9.49;100.00;101628.75;10390001;28;20097;-88
2023/03/20 13:20:50;;;;;;;15.98;4.07;;;;;;;9.27;100.00;101611.00;10405953;28;20029;-89
2023/03/20 13:26:12;;;;;;;9.73;3.60;;;;;;;9.42;100.00;101613.38;10374548;28;20049;-74
2023/03/20 13:31:32;;;;;;;8.35;3.47;;;;;;;9.47;100.00;101597.06;10375172;28;20044;-89
2023/03/20 13:36:48;;;;;;;13.48;6.75;;;;;;;9.55;100.00;101615.13;10407424;28;20033;-89
2023/03/20 13:41:48;;;;;;;7.35;3.40;;;;;;;9.16;100.00;101611.78;10404493;28;20041;-87
2023/03/20 13:46:50;;;;;;;7.90;4.00;;;;;;;8.87;100.00;101625.16;10404925;28;20030;-90
2023/03/20 13:51:59;;;;;;;4.38;3.17;;;;;;;8.63;100.00;101602.94;10405531;28;20069;-89
2023/03/20 13:57:34;;;;;;;10.48;3.63;;;;;;;8.76;100.00;101618.44;10365230;28;20088;-90
2023/03/20 14:03:10;;;;;;;5.50;3.40;;;;;;;8.88;100.00;101621.31;10343219;28;20042;-90
2023/03/20 14:08:25;;;;;;;6.75;3.35;;;;;;;8.76;100.00;101618.44;10346647;28;20033;-90
2023/03/20 14:13:26;;;;;;;13.38;4.43;;;;;;;8.57;100.00;101614.81;10390266;28;20504;-88
2023/03/20 14:18:26;;;;;;;12.43;5.32;;;;;;;8.49;100.00;101595.88;10372401;28;20038;-81
2023/03/20 14:23:50;;;;;;;7.53;4.47;;;;;;;8.34;100.00;101609.88;10355437;28;20053;-87
2023/03/20 14:28:59;;;;;;;9.48;4.18;;;;;;;8.24;100.00;101618.59;10332469;28;20030;-88
2023/03/20 14:34:12;;;;;;;12.00;5.65;;;;;;;8.21;100.00;101621.78;10400834;28;20068;-83
2023/03/20 14:39:37;;;;;;;9.35;6.72;;;;;;;8.24;100.00;101585.66;10387413;28;20037;-84
2023/03/20 14:45:20;;;;;;;16.90;7.20;;;;;;;8.00;100.00;101572.75;10405844;28;20041;-82
2023/03/20 14:50:31;;;;;;;10.88;7.00;;;;;;;8.13;100.00;101591.03;10378107;28;20037;-84
2023/03/20 14:55:34;;;;;;;11.55;8.38;;;;;;;7.83;100.00;101551.34;10396135;28;20489;-83
2023/03/20 15:00:43;;;;;;;18.83;10.07;;;;;;;7.86;100.00;101592.03;10395339;28;20037;-85
2023/03/20 15:05:43;;;;;;;11.40;7.72;;;;;;;7.82;100.00;101589.94;10394516;28;20232;-85
2023/03/20 15:10:52;;;;;;;13.88;8.50;;;;;;;7.65;100.00;101564.94;10412122;28;20026;-87
2023/03/20 15:15:57;;;;;;;15.77;9.00;;;;;;;7.79;100.00;101585.75;10380137;28;20473;-88
2023/03/20 15:20:57;;;;;;;13.55;9.18;;;;;;;7.79;100.00;101585.75;10361602;28;20205;-89
2023/03/20 15:25:58;;;;;;;18.42;9.05;;;;;;;7.72;100.00;101587.66;10379500;28;20045;-88
2023/03/20 15:31:00;;;;;;;19.52;9.45;;;;;;;7.69;100.00;101577.16;10364552;28;20058;-88
2023/03/20 15:36:14;;;;;;;17.83;10.27;;;;;;;7.64;100.00;101565.97;10367841;28;20042;-83
2023/03/20 15:41:47;;;;;;;10.65;8.10;;;;;;;7.77;100.00;101582.38;10408200;28;20042;-87
2023/03/20 15:46:51;;;;;;;16.40;9.25;;;;;;;7.73;100.00;101577.53;10387890;28;20049;-87
2023/03/20 15:51:52;;;;;;;13.57;8.27;;;;;;;7.77;100.00;101565.94;10410012;28;20040;-87
2023/03/20 15:56:55;;;;;;;14.05;7.68;;;;;;;7.67;100.00;101549.94;10375675;28;20049;-84
2023/03/20 16:01:56;;;;;;;13.38;8.02;;;;;;;7.73;100.00;101566.56;10410148;28;20470;-87
2023/03/20 16:06:58;;;;;;;12.32;8.10;;;;;;;7.84;100.00;101571.38;10377068;28;20064;-88
2023/03/20 16:12:00;;;;;;;14.07;9.30;;;;;;;7.69;100.00;101557.97;10392367;28;20033;-88
2023/03/20 16:17:01;;;;;;;11.27;8.07;;;;;;;7.60;100.00;101570.22;10360767;28;20030;-84
2023/03/20 16:22:11;;;;;;;14.70;8.40;;;;;;;7.65;100.00;101560.28;10393584;28;20124;-87
2023/03/20 16:27:22;;;;;;;13.90;8.05;;;;;;;7.70;100.00;101565.13;10409618;28;20045;-88
2023/03/20 16:32:39;;;;;;;13.38;8.27;;;;;;;7.70;100.00;101564.28;10336649;28;20097;-88
2023/03/20 16:37:42;;;;;;;16.75;8.80;;;;;;;7.69;100.00;101560.72;10351533;28;20094;-89
2023/03/20 16:42:42;;;;;;;13.00;8.77;;;;;;;7.62;100.00;101557.13;10339925;28;20038;-87
2023/03/20 16:47:44;;;;;;;20.25;10.10;;;;;;;7.55;100.00;101562.66;10361398;28;20034;-85
2023/03/20 16:52:50;;;;;;;17.52;10.38;;;;;;;7.50;100.00;101556.97;10349876;28;20034;-83
2023/03/20 16:57:52;;;;;;;15.38;10.43;;;;;;;7.48;100.00;101559.09;10334614;28;20076;-82
2023/03/20 17:03:23;;;;;;;21.85;12.75;;;;;;;7.53;100.00;101563.94;10299718;28;20046;-82
2023/03/20 17:08:39;;;;;;;17.90;12.70;;;;;;;7.55;100.00;101565.41;10347244;28;20041;-83
2023/03/20 17:13:40;;;;;;;24.33;13.50;;;;;;;7.45;100.00;101549.41;10351308;28;20065;-81
2023/03/20 17:18:40;;;;;;;23.55;14.52;;;;;;;7.39;100.00;101531.09;10343888;28;20092;-82
2023/03/20 17:23:41;;;;;;;22.95;14.65;;;;;;;7.22;100.00;101527.19;10349550;28;20037;-82
2023/03/20 17:28:42;;;;;;;22.23;14.70;;;;;;;7.43;100.00;101564.41;10368260;28;20045;-85
2023/03/20 17:33:43;;;;;;;24.80;15.65;;;;;;;7.40;100.00;101556.59;10353743;28;20458;-85
2023/03/20 17:38:43;;;;;;;25.98;16.52;;;;;;;7.47;100.00;101563.72;10388678;28;20116;-84
2023/03/20 17:43:44;;;;;;;26.45;15.98;;;;;;;7.39;100.00;101563.97;10351659;28;20041;-84
2023/03/20 17:48:46;;;;;;;27.38;16.85;;;;;;;7.46;100.00;101574.91;10373682;28;20041;-83
2023/03/20 17:53:46;;;;;;;29.33;17.55;;;;;;;7.40;100.00;101575.75;10372836;28;20100;-81
2023/03/20 17:58:47;;;;;;;34.95;20.02;;;;;;;7.45;100.00;101574.06;10340576;28;20069;-78
2023/03/20 18:03:47;;;;;;;29.60;19.83;;;;;;;7.38;100.00;101555.97;10377908;28;20033;-72
2023/03/20 18:08:48;;;;;;;30.30;19.17;;;;;;;7.48;100.00;101576.38;10373498;28;20060;-79
2023/03/20 18:13:48;;;;;;;27.20;19.17;;;;;;;7.51;100.00;101580.59;10371851;28;20060;-80
2023/03/20 18:18:49;;;;;;;34.85;20.67;;;;;;;7.39;100.00;101560.41;10343562;28;20061;-82
2023/03/20 18:23:50;;;;;;;31.17;20.08;;;;;;;7.57;100.00;101581.63;10396059;28;20663;-82
2023/03/20 18:28:52;;;;;;;37.33;22.33;;;;;;;7.48;100.00;101561.81;10380574;28;20093;-82
2023/03/20 18:33:53;;;;;;;38.60;23.13;;;;;;;7.56;100.00;101572.53;10399346;28;20105;-81
2023/03/20 18:38:53;;;;;;;37.95;22.40;;;;;;;7.56;100.00;101560.75;10396431;28;20043;-82
2023/03/20 18:43:54;;;;;;;37.45;22.52;;;;;;;7.60;100.00;101575.69;10363282;28;20049;-82
2023/03/20 18:48:55;;;;;;;41.75;25.08;;;;;;;7.57;100.00;101565.19;10395209;28;20033;-82
2023/03/20 18:53:56;;;;;;;42.47;24.35;;;;;;;7.67;100.00;101573.78;10378486;28;20052;-83
2023/03/20 18:58:56;;;;;;;43.13;25.17;;;;;;;7.53;100.00;101545.59;10380369;28;20263;-86
2023/03/20 19:03:56;;;;;;;46.80;25.77;;;;;;;7.67;100.00;101576.53;10381278;28;20056;-84
2023/03/20 19:08:57;;;;;;;47.10;25.52;;;;;;;7.70;100.00;101570.59;10395115;28;20076;-83
2023/03/20 19:13:57;;;;;;;51.60;27.63;;;;;;;7.68;100.00;101572.72;10377826;28;20033;-83
2023/03/20 19:19:00;;;;;;;51.17;28.27;;;;;;;7.71;100.00;101574.16;10410592;28;20065;-84
2023/03/20 19:24:03;;;;;;;61.63;30.08;;;;;;;7.66;100.00;101575.66;10378195;28;20038;-87
2023/03/20 19:29:08;;;;;;;55.58;29.55;;;;;;;7.71;100.00;101586.00;10449961;28;20505;-87
2023/03/20 19:34:09;;;;;;;57.45;29.55;;;;;;;7.34;100.00;101522.72;10427446;28;20139;-87
2023/03/20 19:39:10;;;;;;;67.57;33.67;;;;;;;7.68;100.00;101575.44;10401928;28;20037;-87
2023/03/20 19:44:10;;;;;;;65.80;34.15;;;;;;;7.64;100.00;101566.81;10416889;28;20037;-88
2023/03/20 19:49:18;;;;;;;65.28;33.20;;;;;;;7.73;100.00;101574.78;10400070;28;20037;-83
2023/03/20 19:54:19;;;;;;;65.75;34.38;;;;;;;7.67;100.00;101568.31;10378703;28;20060;-82
2023/03/20 19:59:19;;;;;;;66.68;33.45;;;;;;;7.73;100.00;101569.31;10364881;28;20116;-84
2023/03/20 20:04:20;;;;;;;63.35;33.45;;;;;;;7.73;100.00;101559.22;10392357;28;20041;-88
2023/03/20 20:09:20;;;;;;;65.60;34.60;;;;;;;7.75;100.00;101556.22;10408463;28;20037;-84
2023/03/20 20:14:21;;;;;;;73.28;35.90;;;;;;;7.77;100.00;101560.44;10358471;28;20036;-85
2023/03/20 20:19:21;;;;;;;74.72;36.42;;;;;;;7.71;100.00;101550.38;10362361;28;20470;-86
2023/03/20 20:24:22;;;;;;;78.18;36.72;;;;;;;7.75;100.00;101554.34;10412255;28;20565;-87
2023/03/20 20:29:23;;;;;;;79.70;37.97;;;;;;;7.73;100.00;101551.00;10393782;28;20033;-87
2023/03/20 20:34:24;;;;;;;74.10;37.95;;;;;;;7.80;100.00;101551.78;10375439;28;20041;-84
2023/03/20 20:39:25;;;;;;;79.93;37.60;;;;;;;7.70;100.00;101531.38;10379970;28;20052;-75
2023/03/20 20:44:25;;;;;;;80.68;38.53;;;;;;;7.84;100.00;101544.78;10373533;28;20052;-87
2023/03/20 20:49:26;;;;;;;85.68;39.10;;;;;;;7.81;100.00;101545.25;10358516;28;20040;-88
2023/03/20 20:54:27;;;;;;;83.88;37.78;;;;;;;7.83;100.00;101545.88;10376874;28;20120;-87
2023/03/20 20:59:28;;;;;;;84.28;36.85;;;;;;;7.85;100.00;101541.00;10347422;28;20037;-87
2023/03/20 21:04:28;;;;;;;85.60;40.25;;;;;;;7.83;100.00;101534.91;10383521;28;20046;-88
2023/03/20 21:09:29;;;;;;;96.65;42.05;;;;;;;7.69;100.00;101514.13;10368761;28;20097;-88
2023/03/20 21:14:30;;;;;;;89.10;41.00;;;;;;;7.86;100.00;101548.16;10390029;28;20026;-88
2023/03/20 21:19:35;;;;;;;94.82;40.25;;;;;;;7.79;100.00;101547.38;10390021;28;20132;-88
2023/03/20 21:24:36;;;;;;;89.28;39.53;;;;;;;7.85;100.00;101546.50;10380547;28;20075;-87
2023/03/20 21:29:37;;;;;;;95.57;41.30;;;;;;;7.89;100.00;101547.69;10409605;28;20042;-87
2023/03/20 21:34:38;;;;;;;90.57;40.28;;;;;;;7.96;100.00;101544.09;10408303;28;20042;-85
2023/03/20 21:39:38;;;;;;;91.97;40.47;;;;;;;7.95;100.00;101540.50;10369046;28;20389;-87
2023/03/20 21:44:39;;;;;;;98.40;42.88;;;;;;;7.97;100.00;101549.34;10373158;28;20045;-87
2023/03/20 21:49:39;;;;;;;97.70;41.47;;;;;;;7.98;100.00;101544.69;10388003;28;20030;-87
2023/03/20 21:54:40;;;;;;;97.25;42.90;;;;;;;7.88;100.00;101529.59;10391952;28;20049;-88
2023/03/20 21:59:40;;;;;;;94.63;41.28;;;;;;;7.99;100.00;101530.78;10367095;28;20033;-86
2023/03/20 22:04:41;;;;;;;97.40;43.78;;;;;;;7.38;100.00;101441.78;10379456;28;20053;-88
2023/03/20 22:09:42;;;;;;;96.05;41.15;;;;;;;8.02;100.00;101545.94;10377904;28;20049;-88
2023/03/20 22:14:42;;;;;;;101.47;41.40;;;;;;;7.96;100.00;101522.16;10437510;28;20052;-86
2023/03/20 22:19:42;;;;;;;97.50;40.03;;;;;;;8.04;100.00;101546.56;10393426;28;20033;-83
2023/03/20 22:24:43;;;;;;;87.40;38.33;;;;;;;8.08;100.00;101542.31;10418782;28;20045;-87
2023/03/20 22:29:44;;;;;;;98.68;40.58;;;;;;;8.07;100.00;101546.13;10429524;28;20044;-88
2023/03/20 22:34:44;;;;;;;102.78;41.92;;;;;;;8.14;100.00;101540.59;10421504;28;20037;-87
2023/03/20 22:39:45;;;;;;;94.25;40.92;;;;;;;8.05;100.00;101529.06;10427453;28;20033;-86
2023/03/20 22:44:46;;;;;;;95.50;38.70;;;;;;;8.01;100.00;101519.59;10406230;28;20063;-87
2023/03/20 22:49:47;;;;;;;92.22;39.55;;;;;;;8.18;100.00;101533.59;10439246;28;20045;-85
2023/03/20 22:54:47;;;;;;;99.30;39.45;;;;;;;8.18;100.00;101533.59;10435914;28;20048;-86
2023/03/20 22:59:47;;;;;;;102.90;41.90;;;;;;;7.57;100.00;101425.44;10403515;28;20029;-86